Time;durP1;ratioP1;P1;durP2;ratioP2;P2;SDS_P1;SDS_P2;PMS_P1;PMS_P2;Temp;Humidity;BMP_temperature;BMP_pressure;BME280_temperature;BME280_humidity;BME280_pressure;Samples;Min_cycle;Max_cycle;Signal;HPM_P1;HPM_P2
2023/03/15 00:01:39;;;;;;;13.20;5.10;;;0.60;99.90;;;;;;4816580;29;20439;-58
2023/03/15 00:04:07;;;;;;;12.68;5.97;;;0.50;99.90;;;;;;4831370;29;20494;-58
2023/03/15 00:06:34;;;;;;;12.10;5.72;;;0.50;99.90;;;;;;4812797;29;20059;-58
2023/03/15 00:09:03;;;;;;;15.30;5.78;;;0.50;99.90;;;;;;4826188;29;20054;-59
2023/03/15 00:11:30;;;;;;;13.77;6.07;;;0.50;99.90;;;;;;4820677;29;20055;-59
2023/03/15 00:13:59;;;;;;;11.88;5.97;;;0.40;99.90;;;;;;4826364;29;20038;-59
2023/03/15 00:16:27;;;;;;;10.90;5.50;;;0.40;99.90;;;;;;4808357;29;20070;-59
2023/03/15 00:18:55;;;;;;;10.43;5.68;;;0.40;99.90;;;;;;4821489;29;20054;-60
2023/03/15 00:21:23;;;;;;;14.75;6.88;;;0.40;99.90;;;;;;4817220;29;20062;-58
2023/03/15 00:23:54;;;;;;;15.45;6.68;;;0.40;99.90;;;;;;4832519;29;20066;-59
2023/03/15 00:26:22;;;;;;;15.30;6.55;;;0.40;99.90;;;;;;4837417;29;20050;-59
2023/03/15 00:28:50;;;;;;;13.80;6.32;;;0.30;99.90;;;;;;4823933;29;20053;-60
2023/03/15 00:31:23;;;;;;;13.02;5.88;;;0.40;99.90;;;;;;4827862;29;20054;-57
2023/03/15 00:33:55;;;;;;;13.23;6.50;;;0.30;99.90;;;;;;4831297;29;20057;-59
2023/03/15 00:36:23;;;;;;;14.85;6.30;;;0.30;99.90;;;;;;4818894;29;20062;-59
2023/03/15 00:38:53;;;;;;;13.15;6.20;;;0.30;99.90;;;;;;4830746;29;20046;-58
2023/03/15 00:41:22;;;;;;;18.70;7.30;;;0.30;99.90;;;;;;4818870;29;20054;-58
2023/03/15 00:43:50;;;;;;;14.10;6.47;;;0.30;99.90;;;;;;4825408;29;20050;-59
2023/03/15 00:46:18;;;;;;;16.67;7.00;;;0.20;99.90;;;;;;4823646;29;20061;-58
2023/03/15 00:48:48;;;;;;;21.67;6.78;;;0.20;99.90;;;;;;4827970;29;20053;-58
2023/03/15 00:51:18;;;;;;;;;;;0.10;99.90;;;;;;4822074;29;20054;-58
2023/03/15 00:53:46;;;;;;;15.18;7.13;;;0.10;99.90;;;;;;4831425;29;19951;-59
2023/03/15 00:56:20;;;;;;;19.40;7.32;;;0.10;99.90;;;;;;4840082;29;20050;-59
2023/03/15 00:58:51;;;;;;;13.43;6.15;;;0.10;99.90;;;;;;4828964;29;20042;-58
2023/03/15 01:01:25;;;;;;;15.68;6.13;;;0.10;99.90;;;;;;4824134;29;20050;-58
2023/03/15 01:03:56;;;;;;;14.27;6.78;;;0.10;99.90;;;;;;4826324;29;20054;-59
2023/03/15 01:06:26;;;;;;;13.88;6.85;;;0.10;99.90;;;;;;4811476;29;20073;-60
2023/03/15 01:08:55;;;;;;;17.75;7.53;;;0.10;99.90;;;;;;4842905;29;20049;-59
2023/03/15 01:11:26;;;;;;;16.58;6.80;;;0.10;99.90;;;;;;4813716;29;20058;-58
2023/03/15 01:13:57;;;;;;;19.55;8.27;;;0.00;99.90;;;;;;4822929;29;20508;-59
2023/03/15 01:16:27;;;;;;;14.02;6.22;;;0.00;99.90;;;;;;4805943;29;20503;-59
2023/03/15 01:18:55;;;;;;;13.20;6.82;;;0.00;99.90;;;;;;4807894;29;20057;-58
2023/03/15 01:21:23;;;;;;;16.83;7.55;;;0.00;99.90;;;;;;4822174;29;20396;-60
2023/03/15 01:23:52;;;;;;;12.32;6.78;;;0.00;99.90;;;;;;4815838;29;20408;-60
2023/03/15 01:26:22;;;;;;;18.88;6.80;;;-0.10;99.90;;;;;;4802245;29;20051;-59
2023/03/15 01:28:50;;;;;;;13.02;6.70;;;-0.10;99.90;;;;;;4825121;29;20042;-58
2023/03/15 01:31:20;;;;;;;;;;;-0.20;99.90;;;;;;4810704;29;20057;-58
2023/03/15 01:33:48;;;;;;;13.88;6.22;;;-0.20;99.90;;;;;;4831001;29;20401;-59
2023/03/15 01:36:16;;;;;;;15.25;7.97;;;-0.20;99.90;;;;;;4829673;29;20515;-59
2023/03/15 01:38:45;;;;;;;16.58;7.05;;;-0.20;99.90;;;;;;4809907;29;20051;-58
2023/03/15 01:41:16;;;;;;;13.88;7.22;;;-0.30;99.90;;;;;;4819263;29;20415;-59
2023/03/15 01:43:46;;;;;;;12.85;6.43;;;-0.30;99.90;;;;;;4829120;29;20046;-58
2023/03/15 01:46:33;;;;;;;17.98;6.60;;;-0.30;99.90;;;;;;4836726;29;20423;-59
2023/03/15 01:49:32;;;;;;;13.43;6.68;;;-0.30;99.90;;;;;;4819256;29;20061;-58
2023/03/15 01:52:11;;;;;;;15.73;6.05;;;-0.30;99.90;;;;;;4814137;29;20507;-58
2023/03/15 01:55:09;;;;;;;14.70;6.50;;;-0.40;99.90;;;;;;4815934;29;20057;-59
2023/03/15 01:57:54;;;;;;;16.58;7.22;;;-0.40;99.90;;;;;;4816929;29;20054;-57
2023/03/15 02:00:26;;;;;;;12.18;6.47;;;-0.50;99.90;;;;;;4819517;29;20050;-60
2023/03/15 02:03:09;;;;;;;15.50;7.55;;;-0.50;99.90;;;;;;4822645;29;20046;-58
2023/03/15 02:05:44;;;;;;;16.45;7.22;;;-0.50;99.90;;;;;;4818260;29;20071;-59
2023/03/15 02:08:21;;;;;;;14.13;6.25;;;-0.40;99.90;;;;;;4829608;29;20053;-58
2023/03/15 02:10:52;;;;;;;15.45;6.90;;;-0.50;99.90;;;;;;4826306;29;20047;-59
2023/03/15 02:13:23;;;;;;;12.75;6.05;;;-0.50;99.90;;;;;;4821848;29;20053;-59
2023/03/15 02:15:55;;;;;;;14.88;7.63;;;-0.50;99.90;;;;;;4810513;29;20427;-58
2023/03/15 02:18:36;;;;;;;14.00;7.13;;;-0.50;99.90;;;;;;4830463;29;20055;-59
2023/03/15 02:21:44;;;;;;;12.18;6.22;;;-0.50;99.90;;;;;;4808267;29;20058;-57
2023/03/15 02:24:42;;;;;;;13.70;6.65;;;-0.60;99.90;;;;;;4818636;29;20058;-59
2023/03/15 02:27:10;;;;;;;17.40;7.38;;;-0.60;99.90;;;;;;4800796;29;20051;-59
2023/03/15 02:29:38;;;;;;;17.83;7.53;;;-0.60;99.90;;;;;;4826765;29;20061;-58
2023/03/15 02:32:06;;;;;;;14.23;6.78;;;-0.70;99.90;;;;;;4808504;29;20411;-59
2023/03/15 02:34:34;;;;;;;14.60;7.43;;;-0.60;99.90;;;;;;4822333;29;20043;-58
2023/03/15 02:37:02;;;;;;;16.25;7.53;;;-0.70;99.90;;;;;;4810232;29;20054;-58
2023/03/15 02:39:30;;;;;;;20.75;8.23;;;-0.70;99.90;;;;;;4805591;29;20054;-58
2023/03/15 02:42:01;;;;;;;20.90;8.15;;;-0.80;99.90;;;;;;4805047;29;20058;-58
2023/03/15 02:44:37;;;;;;;16.92;7.50;;;-0.80;99.90;;;;;;4821497;29;20058;-59
2023/03/15 02:47:22;;;;;;;17.48;7.57;;;-0.80;99.90;;;;;;4805161;29;20059;-58
2023/03/15 02:49:52;;;;;;;16.20;6.88;;;-0.80;99.90;;;;;;4813439;29;20039;-58
2023/03/15 02:52:21;;;;;;;16.25;7.88;;;-0.80;99.90;;;;;;4818448;29;20059;-58
2023/03/15 02:54:49;;;;;;;19.75;8.95;;;-0.80;99.90;;;;;;4818310;29;20069;-58
2023/03/15 02:57:18;;;;;;;19.83;7.85;;;-0.80;99.90;;;;;;4788546;29;20065;-58
2023/03/15 02:59:49;;;;;;;15.95;7.07;;;-0.90;99.90;;;;;;4802830;29;20503;-58
2023/03/15 03:02:18;;;;;;;15.30;7.35;;;-0.90;99.90;;;;;;4811546;29;20068;-58
2023/03/15 03:04:46;;;;;;;17.02;7.68;;;-0.80;99.90;;;;;;4808266;29;20054;-58
2023/03/15 03:07:14;;;;;;;14.07;6.88;;;-0.90;99.90;;;;;;4808294;29;20051;-57
2023/03/15 03:09:47;;;;;;;18.40;7.50;;;-0.90;99.90;;;;;;4816062;29;20397;-57
2023/03/15 03:12:17;;;;;;;19.52;7.78;;;-1.00;99.90;;;;;;4809955;29;20054;-58
2023/03/15 03:14:45;;;;;;;16.70;7.20;;;-1.10;99.90;;;;;;4822381;29;20479;-58
2023/03/15 03:17:19;;;;;;;15.30;7.13;;;-1.00;99.90;;;;;;4811029;29;20038;-58
2023/03/15 03:19:47;;;;;;;21.50;7.43;;;-1.00;99.90;;;;;;4819192;29;20043;-58
2023/03/15 03:22:23;;;;;;;17.25;7.10;;;-1.10;99.90;;;;;;4821039;29;20047;-58
2023/03/15 03:24:51;;;;;;;18.80;9.35;;;-1.10;99.90;;;;;;4821733;29;20400;-58
2023/03/15 03:27:18;;;;;;;18.65;8.45;;;-1.10;99.90;;;;;;4813138;29;20656;-58
2023/03/15 03:29:47;;;;;;;16.90;8.52;;;-1.10;99.90;;;;;;4808193;29;20058;-58
2023/03/15 03:32:16;;;;;;;18.85;8.80;;;-1.20;99.90;;;;;;4820612;29;20050;-58
2023/03/15 03:34:47;;;;;;;16.40;7.40;;;-1.20;99.90;;;;;;4821704;29;20050;-58
2023/03/15 03:37:18;;;;;;;20.10;8.57;;;-1.10;99.90;;;;;;4804578;29;20054;-57
2023/03/15 03:39:55;;;;;;;18.08;7.80;;;-1.20;99.90;;;;;;4817961;29;20051;-58
2023/03/15 03:42:23;;;;;;;20.65;8.52;;;-1.20;99.90;;;;;;4821522;29;20498;-57
2023/03/15 03:44:54;;;;;;;19.65;8.43;;;-1.30;99.90;;;;;;4816979;29;20554;-57
2023/03/15 03:47:25;;;;;;;23.55;8.55;;;-1.30;99.90;;;;;;4806890;29;20059;-58
2023/03/15 03:49:53;;;;;;;18.05;7.68;;;-1.30;99.90;;;;;;4803657;29;20054;-57
2023/03/15 03:52:21;;;;;;;17.70;7.85;;;-1.40;99.90;;;;;;4808565;29;20051;-58
2023/03/15 03:54:51;;;;;;;19.58;7.43;;;-1.40;99.90;;;;;;4818765;29;20050;-57
2023/03/15 03:57:19;;;;;;;19.10;8.68;;;-1.40;99.90;;;;;;4814872;29;20063;-57
2023/03/15 03:59:48;;;;;;;16.55;7.95;;;-1.40;99.90;;;;;;4815451;29;20039;-57
2023/03/15 04:02:17;;;;;;;19.52;8.45;;;-1.40;99.90;;;;;;4817931;29;20388;-57
2023/03/15 04:04:55;;;;;;;17.02;8.65;;;-1.40;99.90;;;;;;4805257;29;20066;-58
2023/03/15 04:07:23;;;;;;;21.42;8.32;;;-1.50;99.90;;;;;;4806167;29;20079;-58
2023/03/15 04:09:52;;;;;;;18.20;7.93;;;-1.50;99.90;;;;;;4800723;29;20051;-58
2023/03/15 04:12:20;;;;;;;15.48;7.50;;;-1.50;99.90;;;;;;4804199;29;20050;-58
2023/03/15 04:14:48;;;;;;;20.88;8.10;;;-1.50;99.90;;;;;;4812660;29;20062;-58
2023/03/15 04:17:18;;;;;;;;;;;-1.50;99.90;;;;;;4802579;29;20063;-58
2023/03/15 04:19:45;;;;;;;26.58;10.02;;;-1.50;99.90;;;;;;4802629;29;20378;-58
2023/03/15 04:22:16;;;;;;;27.48;10.98;;;-1.60;99.90;;;;;;4802525;29;20509;-58
2023/03/15 04:25:00;;;;;;;27.30;10.43;;;;;;;;;;4817113;29;20065;-57
2023/03/15 04:27:57;;;;;;;57.58;12.90;;;-1.50;99.90;;;;;;4809813;29;20050;-59
2023/03/15 04:30:57;;;;;;;23.42;10.73;;;-1.40;99.90;;;;;;4848729;29;20592;-59
2023/03/15 04:33:57;;;;;;;29.00;8.43;;;-1.50;99.90;;;;;;4838696;29;20515;-58
2023/03/15 04:36:36;;;;;;;61.10;12.10;;;-1.40;99.90;;;;;;4806304;29;20038;-58
2023/03/15 04:39:25;;;;;;;;;;;-1.40;99.90;;;;;;4813809;29;20050;-57
2023/03/15 04:42:11;;;;;;;64.47;12.05;;;-1.30;99.90;;;;;;4803979;29;19925;-58
2023/03/15 04:44:46;;;;;;;149.70;15.80;;;-1.30;99.90;;;;;;4819514;29;20058;-57
2023/03/15 04:47:34;;;;;;;102.32;13.38;;;-1.20;99.90;;;;;;4824679;29;20073;-57
2023/03/15 04:50:23;;;;;;;205.35;16.10;;;-1.20;99.90;;;;;;4825205;29;20042;-57
2023/03/15 04:52:59;;;;;;;86.22;14.15;;;-1.20;99.90;;;;;;4825044;29;20398;-58
2023/03/15 04:55:45;;;;;;;138.15;15.48;;;-1.20;99.90;;;;;;4811181;29;20047;-58
2023/03/15 04:58:32;;;;;;;67.97;13.88;;;-1.10;99.90;;;;;;4819761;29;20047;-58
2023/03/15 05:01:24;;;;;;;84.80;14.52;;;-1.10;99.90;;;;;;4809054;29;20046;-58
2023/03/15 05:04:07;;;;;;;84.25;14.65;;;-1.10;99.90;;;;;;4821579;29;20057;-58
2023/03/15 05:06:51;;;;;;;51.47;14.32;;;-1.00;99.90;;;;;;4819733;29;20039;-58
2023/03/15 05:10:00;;;;;;;75.50;12.82;;;-1.00;99.90;;;;;;4820878;29;20054;-59
2023/03/15 05:12:51;;;;;;;41.15;14.40;;;-1.00;99.90;;;;;;4816467;29;20060;-58
2023/03/15 05:15:45;;;;;;;38.72;13.85;;;-1.00;99.90;;;;;;4812252;29;20058;-58
2023/03/15 05:18:33;;;;;;;40.65;13.50;;;-1.00;99.90;;;;;;4832091;29;20059;-57
2023/03/15 05:21:24;;;;;;;40.75;15.25;;;-0.90;99.90;;;;;;4824077;29;20066;-57
2023/03/15 05:24:15;;;;;;;40.05;14.20;;;-0.90;99.90;;;;;;4818632;29;20047;-60
2023/03/15 05:26:53;;;;;;;47.88;15.30;;;-0.90;99.90;;;;;;4822393;29;20400;-57
2023/03/15 05:29:45;;;;;;;56.20;14.40;;;-0.80;99.90;;;;;;4816215;29;20042;-59
2023/03/15 05:32:25;;;;;;;54.63;15.35;;;-0.80;99.90;;;;;;4817761;29;20051;-58
2023/03/15 05:35:25;;;;;;;52.10;14.65;;;-0.90;99.90;;;;;;4805940;29;20054;-58
2023/03/15 05:38:13;;;;;;;66.43;15.63;;;-0.80;99.90;;;;;;4821891;29;20069;-59
2023/03/15 05:40:53;;;;;;;75.35;14.60;;;-0.80;99.90;;;;;;4817319;29;20050;-58
2023/03/15 05:43:39;;;;;;;96.47;14.75;;;-0.80;99.90;;;;;;4811417;29;20439;-58
2023/03/15 05:46:31;;;;;;;105.75;14.82;;;-0.80;99.90;;;;;;4808224;29;20070;-57
2023/03/15 05:49:16;;;;;;;129.02;15.55;;;-0.80;99.90;;;;;;4811356;29;20380;-59
2023/03/15 05:52:07;;;;;;;93.05;14.23;;;-0.80;99.90;;;;;;4834080;29;20503;-59
2023/03/15 05:54:50;;;;;;;96.45;14.95;;;-0.80;99.90;;;;;;4807596;29;20046;-58
2023/03/15 05:57:21;;;;;;;84.53;13.90;;;-0.80;99.90;;;;;;4816189;29;20049;-57
2023/03/15 05:59:56;;;;;;;139.75;14.25;;;-0.80;99.90;;;;;;4836092;29;20041;-59
2023/03/15 06:02:48;;;;;;;88.03;12.27;;;-0.80;99.90;;;;;;4804106;29;20042;-58
2023/03/15 06:05:28;;;;;;;59.60;11.98;;;;;;;;;;4787252;29;20066;-58
2023/03/15 06:07:58;;;;;;;171.88;14.77;;;-0.90;99.90;;;;;;4810406;29;20043;-58
2023/03/15 06:10:29;;;;;;;68.85;13.40;;;-0.90;99.90;;;;;;4812509;29;20053;-59
2023/03/15 06:13:00;;;;;;;74.72;13.88;;;-0.90;99.90;;;;;;4820659;29;20046;-58
2023/03/15 06:15:31;;;;;;;51.38;13.73;;;-0.90;99.90;;;;;;4811069;29;20076;-58
2023/03/15 06:18:00;;;;;;;39.92;12.82;;;-1.00;99.90;;;;;;4814590;29;20054;-59
2023/03/15 06:20:30;;;;;;;54.90;12.30;;;-1.00;99.90;;;;;;4808341;29;20407;-59
2023/03/15 06:23:06;;;;;;;44.78;13.60;;;-1.00;99.90;;;;;;4820706;29;20490;-59
2023/03/15 06:25:41;;;;;;;35.33;12.88;;;-1.10;99.90;;;;;;4803497;29;20492;-58
2023/03/15 06:28:10;;;;;;;32.95;12.00;;;-1.10;99.90;;;;;;4811411;29;20065;-59
2023/03/15 06:30:42;;;;;;;31.27;11.57;;;-1.20;99.90;;;;;;4799805;29;20051;-58
2023/03/15 06:33:15;;;;;;;36.28;12.60;;;-1.20;99.90;;;;;;4821601;29;20053;-59
2023/03/15 06:35:45;;;;;;;37.28;13.73;;;-1.20;99.90;;;;;;4813848;29;20530;-60
2023/03/15 06:38:16;;;;;;;35.03;11.80;;;-1.20;99.90;;;;;;4805578;29;20053;-58
2023/03/15 06:40:44;;;;;;;27.20;11.10;;;-1.30;99.90;;;;;;4799707;29;20055;-58
2023/03/15 06:43:17;;;;;;;33.65;13.02;;;-1.30;99.90;;;;;;4822552;29;20058;-57
2023/03/15 06:45:46;;;;;;;42.15;13.63;;;-1.30;99.90;;;;;;4815070;29;20053;-58
2023/03/15 06:48:18;;;;;;;36.70;11.98;;;-1.30;99.90;;;;;;4818046;29;20057;-57
2023/03/15 06:50:50;;;;;;;35.40;13.18;;;-1.30;99.90;;;;;;4810355;29;20343;-57
2023/03/15 06:53:18;;;;;;;36.13;13.13;;;-1.30;99.90;;;;;;4818983;29;20073;-57
2023/03/15 06:55:46;;;;;;;35.63;13.15;;;-1.30;99.90;;;;;;4818734;29;20054;-58
2023/03/15 06:58:15;;;;;;;37.77;14.03;;;-1.30;99.90;;;;;;4826905;29;20487;-58
2023/03/15 07:00:43;;;;;;;45.88;15.18;;;;;;;;;;4816497;29;20839;-59
2023/03/15 07:03:11;;;;;;;40.63;14.75;;;-1.20;99.90;;;;;;4810997;29;20054;-58
2023/03/15 07:05:39;;;;;;;41.80;13.15;;;-1.20;99.90;;;;;;4812332;29;20077;-59
2023/03/15 07:08:07;;;;;;;43.63;14.30;;;-1.20;99.90;;;;;;4822781;29;20066;-57
2023/03/15 07:10:35;;;;;;;36.83;13.68;;;-1.10;99.90;;;;;;4809064;29;20510;-59
2023/03/15 07:13:05;;;;;;;37.85;14.10;;;-1.10;99.90;;;;;;4805280;29;20046;-58
2023/03/15 07:15:39;;;;;;;35.85;14.00;;;-1.00;99.90;;;;;;4799056;29;20065;-58
2023/03/15 07:18:07;;;;;;;44.72;15.60;;;-1.00;99.90;;;;;;4815265;29;20384;-58
2023/03/15 07:20:35;;;;;;;40.08;15.88;;;-0.90;99.90;;;;;;4813243;29;20062;-60
2023/03/15 07:23:04;;;;;;;38.20;14.13;;;-0.90;99.90;;;;;;4814160;29;20058;-60
2023/03/15 07:25:32;;;;;;;36.78;14.20;;;-0.90;99.90;;;;;;4817720;29;20640;-59
2023/03/15 07:28:19;;;;;;;44.63;15.90;;;-0.80;99.90;;;;;;4828906;29;20061;-58
2023/03/15 07:31:00;;;;;;;38.33;14.20;;;-0.70;99.90;;;;;;4819230;29;20042;-61
2023/03/15 07:33:32;;;;;;;25.92;12.70;;;-0.60;99.90;;;;;;4819816;29;20073;-59
2023/03/15 07:36:03;;;;;;;30.67;12.60;;;-0.60;99.90;;;;;;4802573;29;20046;-57
2023/03/15 07:38:33;;;;;;;36.10;13.70;;;-0.50;99.90;;;;;;4817985;29;20058;-57
2023/03/15 07:41:02;;;;;;;31.08;13.38;;;-0.40;99.90;;;;;;4803783;29;20487;-58
2023/03/15 07:43:30;;;;;;;27.15;12.50;;;-0.40;99.90;;;;;;4812087;29;20047;-59
2023/03/15 07:46:13;;;;;;;23.35;11.27;;;-0.20;99.90;;;;;;4810862;29;20057;-59
2023/03/15 07:48:44;;;;;;;26.77;11.20;;;-0.20;99.90;;;;;;4826170;29;20058;-60
2023/03/15 07:51:14;;;;;;;23.95;12.85;;;-0.10;99.90;;;;;;4837497;29;20042;-59
2023/03/15 07:53:42;;;;;;;20.45;10.75;;;1.40;99.90;;;;;;4818285;29;20050;-59
2023/03/15 07:56:10;;;;;;;25.92;11.43;;;0.00;99.90;;;;;;4798914;29;20055;-59
2023/03/15 07:58:37;;;;;;;27.50;13.85;;;2.20;99.90;;;;;;4813232;29;20054;-60
2023/03/15 08:01:05;;;;;;;19.90;11.27;;;0.20;99.90;;;;;;4800649;29;20069;-58
2023/03/15 08:03:33;;;;;;;25.60;12.73;;;;;;;;;;4811751;29;20051;-58
2023/03/15 08:06:01;;;;;;;28.60;13.70;;;0.20;99.90;;;;;;4803991;29;20070;-58
2023/03/15 08:08:28;;;;;;;20.63;11.32;;;0.30;99.90;;;;;;4823313;29;20058;-58
2023/03/15 08:10:58;;;;;;;24.50;12.65;;;0.30;99.90;;;;;;4807199;29;20419;-57
2023/03/15 08:13:25;;;;;;;21.95;10.40;;;0.40;99.90;;;;;;4812686;29;20042;-58
2023/03/15 08:15:53;;;;;;;20.65;10.45;;;0.40;99.90;;;;;;4804359;29;20081;-58
2023/03/15 08:18:21;;;;;;;31.67;10.82;;;0.40;99.90;;;;;;4816967;29;20065;-59
2023/03/15 08:20:48;;;;;;;22.17;10.38;;;0.40;99.90;;;;;;4815739;29;20360;-57
2023/03/15 08:23:16;;;;;;;24.95;10.65;;;0.50;99.90;;;;;;4825420;29;20065;-57
2023/03/15 08:25:44;;;;;;;30.77;13.13;;;0.60;99.90;;;;;;4831150;29;20435;-59
2023/03/15 08:28:12;;;;;;;19.77;11.23;;;0.60;99.90;;;;;;4829570;29;20057;-59
2023/03/15 08:30:40;;;;;;;23.73;10.68;;;0.70;99.90;;;;;;4822499;29;20410;-58
2023/03/15 08:33:08;;;;;;;22.13;10.23;;;;;;;;;;4829853;29;20057;-58
2023/03/15 08:35:40;;;;;;;19.65;9.70;;;0.70;99.90;;;;;;4840539;29;20058;-58
2023/03/15 08:38:08;;;;;;;19.50;10.02;;;0.80;99.90;;;;;;4832933;29;20081;-57
2023/03/15 08:40:37;;;;;;;19.95;9.75;;;;;;;;;;4826314;29;20597;-58
2023/03/15 08:43:06;;;;;;;22.40;10.10;;;0.90;99.90;;;;;;4829776;29;20054;-57
2023/03/15 08:45:36;;;;;;;;;;;1.00;99.90;;;;;;4812438;29;20066;-58
2023/03/15 08:48:24;;;;;;;20.73;8.70;;;1.00;99.90;;;;;;4821176;29;19924;-57
2023/03/15 08:50:54;;;;;;;18.60;9.60;;;1.10;99.90;;;;;;4821761;29;20057;-58
2023/03/15 08:53:21;;;;;;;18.10;8.90;;;1.30;99.90;;;;;;4832279;29;20053;-59
2023/03/15 08:55:52;;;;;;;18.88;9.27;;;1.30;99.90;;;;;;4825828;29;20054;-57
2023/03/15 08:58:20;;;;;;;20.95;9.52;;;0.50;99.90;;;;;;4823170;29;20539;-60
2023/03/15 09:00:49;;;;;;;17.00;9.02;;;1.40;99.90;;;;;;4822760;29;20059;-57
2023/03/15 09:03:18;;;;;;;21.42;9.13;;;1.50;99.90;;;;;;4831447;29;20057;-57
2023/03/15 09:05:46;;;;;;;17.65;8.68;;;1.50;99.90;;;;;;4817527;29;20055;-58
2023/03/15 09:08:15;;;;;;;21.00;8.93;;;1.60;99.90;;;;;;4821422;29;20053;-58
2023/03/15 09:10:46;;;;;;;15.35;8.68;;;1.70;99.90;;;;;;4829282;29;20506;-57
2023/03/15 09:13:16;;;;;;;23.70;9.60;;;1.80;99.90;;;;;;4831052;29;20066;-57
2023/03/15 09:15:48;;;;;;;20.45;9.07;;;1.80;99.90;;;;;;4812958;29;20496;-57
2023/03/15 09:18:16;;;;;;;19.02;9.63;;;1.80;99.90;;;;;;4821562;29;20049;-55
2023/03/15 09:20:45;;;;;;;17.70;9.68;;;2.00;99.90;;;;;;4823567;29;20053;-57
2023/03/15 09:23:13;;;;;;;16.88;8.93;;;2.10;99.90;;;;;;4830613;29;20054;-57
2023/03/15 09:25:41;;;;;;;19.00;8.25;;;2.10;99.90;;;;;;4839646;29;20080;-56
2023/03/15 09:28:10;;;;;;;19.25;8.60;;;2.10;99.90;;;;;;4828868;29;20083;-58
2023/03/15 09:30:40;;;;;;;13.55;6.65;;;2.20;99.90;;;;;;4816493;29;20415;-57
2023/03/15 09:33:13;;;;;;;11.80;5.88;;;2.20;99.90;;;;;;4829916;29;20054;-57
2023/03/15 09:35:43;;;;;;;13.20;8.40;;;2.30;99.90;;;;;;4831591;29;20042;-57
2023/03/15 09:38:11;;;;;;;15.43;8.02;;;2.40;99.90;;;;;;4828833;29;20490;-58
2023/03/15 09:40:46;;;;;;;14.95;7.10;;;2.50;99.90;;;;;;4836869;29;20058;-56
2023/03/15 09:43:19;;;;;;;13.57;7.20;;;2.60;99.90;;;;;;4823847;29;20081;-56
2023/03/15 09:46:15;;;;;;;10.43;5.35;;;2.60;99.90;;;;;;4818773;29;20059;-60
2023/03/15 09:49:01;;;;;;;12.40;5.80;;;2.70;99.90;;;;;;4819007;29;20046;-59
2023/03/15 09:52:15;;;;;;;12.57;5.28;;;2.80;99.90;;;;;;4819884;29;20058;-58
2023/03/15 09:54:51;;;;;;;12.13;6.15;;;2.80;99.90;;;;;;4818293;29;20252;-58
2023/03/15 09:57:30;;;;;;;11.65;5.28;;;2.90;99.90;;;;;;4806905;29;20063;-56
2023/03/15 10:00:00;;;;;;;12.03;5.70;;;2.90;99.90;;;;;;4824218;29;20519;-58
2023/03/15 10:02:31;;;;;;;11.88;5.20;;;3.00;99.90;;;;;;4810261;29;20400;-58
2023/03/15 10:05:06;;;;;;;11.90;4.90;;;3.00;99.90;;;;;;4835050;29;20054;-58
2023/03/15 10:07:35;;;;;;;12.13;5.03;;;3.10;99.90;;;;;;4828107;29;20050;-58
2023/03/15 10:10:26;;;;;;;8.13;4.30;;;3.20;99.90;;;;;;4838493;29;20418;-57
2023/03/15 10:13:43;;;;;;;5.20;3.22;;;3.30;99.90;;;;;;4828363;29;20395;-59
2023/03/15 10:16:32;;;;;;;12.80;4.35;;;3.30;99.90;;;;;;4817528;29;20058;-58
2023/03/15 10:19:20;;;;;;;7.72;4.72;;;3.40;99.90;;;;;;4829657;29;20054;-59
2023/03/15 10:22:02;;;;;;;11.70;4.30;;;3.40;99.90;;;;;;4838579;29;20056;-57
2023/03/15 10:24:33;;;;;;;8.95;4.65;;;3.60;99.90;;;;;;4819946;29;20059;-59
2023/03/15 10:27:18;;;;;;;9.85;4.90;;;3.70;99.90;;;;;;4817059;29;20046;-58
2023/03/15 10:29:49;;;;;;;13.07;4.55;;;3.70;99.90;;;;;;4800377;29;20072;-57
2023/03/15 10:32:19;;;;;;;7.97;4.90;;;3.80;99.90;;;;;;4814049;29;20063;-58
2023/03/15 10:34:51;;;;;;;13.45;5.68;;;3.90;99.90;;;;;;4835737;29;20046;-58
2023/03/15 10:37:22;;;;;;;10.15;4.75;;;3.90;99.90;;;;;;4821997;29;20050;-58
2023/03/15 10:39:57;;;;;;;9.43;3.63;;;3.90;99.90;;;;;;4838589;29;20054;-58
2023/03/15 10:42:32;;;;;;;11.10;4.05;;;4.00;99.90;;;;;;4832660;29;20061;-58
2023/03/15 10:45:17;;;;;;;12.82;4.80;;;4.10;99.90;;;;;;4832755;29;20058;-58
2023/03/15 10:47:46;;;;;;;11.23;4.80;;;4.20;99.90;;;;;;4819511;29;20054;-58
2023/03/15 10:50:29;;;;;;;5.90;3.72;;;4.30;99.90;;;;;;4820436;29;20050;-59
2023/03/15 10:53:07;;;;;;;6.75;3.70;;;4.30;99.90;;;;;;4827065;29;20058;-58
2023/03/15 10:55:41;;;;;;;5.28;2.70;;;4.40;99.90;;;;;;4838183;29;20050;-58
2023/03/15 10:58:30;;;;;;;7.82;2.90;;;4.40;99.90;;;;;;4834914;29;20046;-58
2023/03/15 11:01:21;;;;;;;6.75;4.43;;;4.40;99.90;;;;;;4819997;29;20049;-59
2023/03/15 11:04:01;;;;;;;7.60;2.83;;;4.50;99.90;;;;;;4827388;29;20050;-58
2023/03/15 11:06:35;;;;;;;;;;;4.50;99.90;;;;;;4838538;29;20562;-57
2023/03/15 11:09:16;;;;;;;10.52;2.80;;;4.50;99.90;;;;;;4836079;29;19925;-58
2023/03/15 11:12:02;;;;;;;5.35;1.98;;;4.60;99.90;;;;;;4838030;29;20053;-58
2023/03/15 11:14:32;;;;;;;6.03;2.38;;;4.70;99.90;;;;;;4837496;29;20519;-58
2023/03/15 11:17:02;;;;;;;4.15;1.90;;;4.80;99.90;;;;;;4820719;29;20051;-59
2023/03/15 11:19:33;;;;;;;6.07;2.45;;;4.80;99.90;;;;;;4822416;29;20050;-58
2023/03/15 11:22:01;;;;;;;4.45;1.73;;;4.80;99.90;;;;;;4819684;29;20050;-58
2023/03/15 11:24:32;;;;;;;8.65;1.52;;;4.90;99.90;;;;;;4837370;29;20046;-57
2023/03/15 11:27:02;;;;;;;5.22;2.15;;;4.90;99.90;;;;;;4836592;29;20059;-58
2023/03/15 11:29:37;;;;;;;9.30;2.33;;;5.00;99.90;;;;;;4809131;29;20495;-58
2023/03/15 11:32:17;;;;;;;10.65;2.42;;;5.00;99.90;;;;;;4817417;29;20062;-59
2023/03/15 11:34:52;;;;;;;5.00;1.80;;;5.10;99.90;;;;;;4833958;29;20056;-58
2023/03/15 11:37:24;;;;;;;8.32;2.17;;;5.10;99.90;;;;;;4822304;29;20046;-58
2023/03/15 11:40:02;;;;;;;3.67;1.50;;;5.10;99.90;;;;;;4831814;29;20042;-58
2023/03/15 11:42:46;;;;;;;5.70;1.70;;;5.10;99.90;;;;;;4804444;29;20059;-59
2023/03/15 11:45:57;;;;;;;3.00;1.48;;;5.10;99.90;;;;;;4819047;29;20062;-60
2023/03/15 11:48:54;;;;;;;8.90;2.38;;;5.10;99.90;;;;;;4813908;29;20062;-61
2023/03/15 11:51:23;;;;;;;7.43;1.80;;;5.10;99.90;;;;;;4815147;29;20058;-59
2023/03/15 11:54:07;;;;;;;5.47;1.92;;;5.10;99.90;;;;;;4823988;29;20507;-59
2023/03/15 11:56:50;;;;;;;4.60;2.35;;;5.10;99.90;;;;;;4802930;29;20059;-58
2023/03/15 11:59:31;;;;;;;8.18;2.00;;;5.20;99.90;;;;;;4830306;29;20388;-58
2023/03/15 12:02:13;;;;;;;5.00;2.67;;;5.20;99.90;;;;;;4811726;29;20046;-58
2023/03/15 12:04:49;;;;;;;15.18;7.05;;;5.20;99.90;;;;;;4835951;29;20058;-58
2023/03/15 12:07:17;;;;;;;10.07;4.53;;;5.20;99.90;;;;;;4804809;29;20062;-58
2023/03/15 12:09:54;;;;;;;7.03;3.30;;;5.20;99.90;;;;;;4800495;29;20050;-58
2023/03/15 12:12:25;;;;;;;5.20;2.40;;;5.10;99.90;;;;;;4815434;29;20074;-59
2023/03/15 12:15:17;;;;;;;7.38;1.75;;;5.10;99.90;;;;;;4836534;29;20498;-59
2023/03/15 12:17:56;;;;;;;5.40;2.20;;;5.20;99.90;;;;;;4810720;29;20050;-58
2023/03/15 12:20:41;;;;;;;4.95;2.67;;;5.20;99.90;;;;;;4839009;29;20054;-59
2023/03/15 12:23:18;;;;;;;6.97;2.80;;;5.20;99.90;;;;;;4823285;29;20064;-59
2023/03/15 12:26:00;;;;;;;3.45;2.50;;;5.20;99.90;;;;;;4804210;29;20055;-59
2023/03/15 12:28:36;;;;;;;5.15;2.05;;;5.30;99.90;;;;;;4814613;29;20046;-59
2023/03/15 12:31:08;;;;;;;3.20;1.73;;;5.30;99.90;;;;;;4815394;29;20054;-59
2023/03/15 12:33:48;;;;;;;4.13;1.83;;;5.30;99.90;;;;;;4826711;29;20046;-59
2023/03/15 12:36:35;;;;;;;16.98;7.43;;;5.30;99.90;;;;;;4823368;29;20057;-59
2023/03/15 12:39:14;;;;;;;7.95;3.03;;;5.30;99.90;;;;;;4808885;29;20071;-57
2023/03/15 12:41:45;;;;;;;23.15;8.63;;;5.30;99.90;;;;;;4818568;29;20054;-59
2023/03/15 12:44:31;;;;;;;10.52;2.28;;;5.40;99.90;;;;;;4835559;29;20636;-58
2023/03/15 12:47:04;;;;;;;10.05;3.30;;;5.50;99.90;;;;;;4806842;29;20062;-59
2023/03/15 12:49:38;;;;;;;5.53;1.75;;;5.50;99.90;;;;;;4804468;29;20058;-58
2023/03/15 12:52:17;;;;;;;4.80;2.00;;;5.60;99.90;;;;;;4803088;29;20047;-58
2023/03/15 12:55:04;;;;;;;3.65;1.52;;;5.60;99.90;;;;;;4818068;29;20054;-58
2023/03/15 12:57:47;;;;;;;2.40;1.48;;;5.60;99.90;;;;;;4808342;29;20312;-58
2023/03/15 13:00:21;;;;;;;3.90;1.48;;;5.70;99.90;;;;;;4819715;29;20391;-58
2023/03/15 13:03:00;;;;;;;3.17;1.40;;;5.70;99.90;;;;;;4818882;29;20056;-58
2023/03/15 13:05:50;;;;;;;4.60;1.67;;;5.70;99.90;;;;;;4810035;29;20050;-59
2023/03/15 13:09:03;;;;;;;2.65;1.55;;;5.70;99.90;;;;;;4824286;29;20054;-60
2023/03/15 13:11:54;;;;;;;5.75;2.22;;;5.70;99.90;;;;;;4840437;29;20054;-58
2023/03/15 13:14:43;;;;;;;6.22;1.92;;;5.70;99.90;;;;;;4834527;29;20061;-59
2023/03/15 13:17:30;;;;;;;4.65;1.88;;;5.70;99.90;;;;;;4789587;29;20061;-60
2023/03/15 13:20:23;;;;;;;5.38;1.80;;;5.60;99.90;;;;;;4802337;29;20046;-61
2023/03/15 13:23:13;;;;;;;6.72;2.38;;;5.70;99.90;;;;;;4803825;29;20053;-59
2023/03/15 13:26:20;;;;;;;2.85;1.92;;;5.70;99.90;;;;;;4795350;29;20511;-58